Time;durP1;ratioP1;P1;durP2;ratioP2;P2;SDS_P1;SDS_P2;PMS_P1;PMS_P2;Temp;Humidity;BMP_temperature;BMP_pressure;BME280_temperature;BME280_humidity;BME280_pressure;Samples;Min_cycle;Max_cycle;Signal;HPM_P1;HPM_P2
2022/11/25 00:00:44;;;;;;;2.33;2.13;;;;;;;21.65;39.32;94774.72;6207376;28;104906;-65
2022/11/25 00:03:48;;;;;;;2.50;2.30;;;;;;;21.65;39.52;94782.72;6218046;28;103917;-65
2022/11/25 00:06:53;;;;;;;2.40;2.20;;;;;;;21.66;39.37;94778.19;6219660;27;103799;-65
2022/11/25 00:09:56;;;;;;;2.10;2.00;;;;;;;21.65;39.51;94780.06;6236675;27;103861;-65
2022/11/25 00:12:59;;;;;;;2.00;1.90;;;;;;;21.66;39.16;94784.28;6211188;27;103911;-65
2022/11/25 00:16:02;;;;;;;1.97;1.87;;;;;;;21.65;39.27;94792.59;6221000;28;104956;-64
2022/11/25 00:19:06;;;;;;;2.30;2.20;;;;;;;21.65;39.87;94784.59;6235520;28;104694;-64
2022/11/25 00:22:10;;;;;;;2.20;2.03;;;;;;;21.64;39.62;94793.69;6227503;27;104343;-64
2022/11/25 00:25:14;;;;;;;2.50;2.30;;;;;;;21.65;39.47;94779.28;6201675;28;105192;-65
2022/11/25 00:28:17;;;;;;;2.17;2.07;;;;;;;21.64;39.56;94799.78;6218710;28;103996;-64
2022/11/25 00:31:21;;;;;;;2.20;2.00;;;;;;;21.63;39.81;94795.56;6209974;28;103789;-65
2022/11/25 00:34:25;;;;;;;2.20;2.00;;;;;;;21.62;39.67;94788.66;6211432;28;103695;-64
2022/11/25 00:37:29;;;;;;;1.90;1.80;;;;;;;21.64;39.25;94785.69;6175283;28;104861;-64
2022/11/25 00:40:32;;;;;;;2.20;2.00;;;;;;;21.63;39.81;94795.56;6202561;28;103893;-64
2022/11/25 00:46:56;;;;;;;2.00;1.83;;;;;;;21.63;39.77;94797.44;6231176;28;103546;-65
2022/11/25 00:49:59;;;;;;;1.60;1.50;;;;;;;21.64;39.63;94805.13;6232164;27;103768;-64
2022/11/25 00:53:03;;;;;;;2.10;2.00;;;;;;;21.62;39.19;94794.00;6230556;27;103998;-64
2022/11/25 00:56:15;;;;;;;2.20;2.00;;;;;;;21.64;39.77;94804.34;6211336;27;103787;-64
2022/11/25 00:59:19;;;;;;;2.00;1.90;;;;;;;21.63;39.77;94802.75;6215880;28;103626;-64
2022/11/25 01:02:22;;;;;;;2.20;2.03;;;;;;;21.63;39.27;94802.75;6211543;28;104846;-63
2022/11/25 01:05:25;;;;;;;2.20;2.10;;;;;;;21.63;39.78;94816.09;6218563;27;103771;-64
2022/11/25 01:08:31;;;;;;;2.27;2.07;;;;;;;21.64;39.14;94807.00;6235472;28;105384;-64
2022/11/25 01:11:35;;;;;;;1.67;1.57;;;;;;;21.65;39.57;94806.69;6224461;27;103870;-64
2022/11/25 01:14:38;;;;;;;2.03;1.90;;;;;;;21.63;39.59;94792.13;6217934;27;103810;-64
2022/11/25 01:17:41;;;;;;;2.00;1.90;;;;;;;21.62;39.37;94806.53;6228456;28;104351;-64
2022/11/25 01:20:44;;;;;;;1.60;1.50;;;;;;;21.63;39.52;94803.56;6194685;28;103414;-64
2022/11/25 01:23:49;;;;;;;1.77;1.67;;;;;;;21.61;39.64;94800.41;6224837;27;103744;-64
2022/11/25 01:26:54;;;;;;;1.90;1.80;;;;;;;21.62;39.47;94795.88;6231268;27;103854;-64
2022/11/25 01:29:57;;;;;;;1.93;1.80;;;;;;;21.62;38.96;94795.88;6210875;28;104960;-64
2022/11/25 01:33:00;;;;;;;1.80;1.70;;;;;;;21.63;38.99;94800.88;6207320;28;103836;-64
2022/11/25 01:36:05;;;;;;;1.70;1.60;;;;;;;21.62;39.08;94796.66;6206253;28;103787;-64
2022/11/25 01:39:16;;;;;;;1.77;1.67;;;;;;;21.63;39.04;94790.25;6211285;28;104988;-63
2022/11/25 01:42:20;;;;;;;1.93;1.80;;;;;;;21.62;39.40;94782.56;6209536;28;103580;-65
2022/11/25 01:45:33;;;;;;;2.17;2.07;;;;;;;21.62;39.32;94787.88;6199321;28;103754;-65
2022/11/25 01:48:42;;;;;;;2.50;2.00;;;;;;;21.62;39.04;94779.91;6210812;28;104079;-65
2022/11/25 01:51:51;;;;;;;2.10;2.00;;;;;;;21.59;39.21;94778.63;6210009;28;103644;-65
2022/11/25 01:55:00;;;;;;;1.57;1.47;;;;;;;21.62;38.91;94777.22;6231397;28;103789;-63
2022/11/25 01:58:06;;;;;;;1.90;1.80;;;;;;;21.61;39.35;94773.78;6212392;28;106260;-64
2022/11/25 02:01:10;;;;;;;1.87;1.77;;;;;;;21.63;39.05;94770.81;6233946;28;103981;-64
2022/11/25 02:04:16;;;;;;;1.97;1.87;;;;;;;21.62;38.75;94772.69;6235185;27;103861;-64
2022/11/25 02:07:26;;;;;;;1.60;1.50;;;;;;;21.61;39.36;94778.31;6221553;27;103912;-64
2022/11/25 02:10:32;;;;;;;2.00;1.90;;;;;;;21.62;39.08;94774.56;6208940;28;103580;-64
2022/11/25 02:13:36;;;;;;;1.83;1.70;;;;;;;21.60;38.82;94777.53;6232284;27;104087;-64
2022/11/25 02:16:40;;;;;;;1.80;1.70;;;;;;;21.60;39.17;94787.41;6216652;27;103871;-64
2022/11/25 02:19:56;;;;;;;1.63;1.53;;;;;;;21.61;38.70;94788.97;6221726;28;103846;-64
2022/11/25 02:23:07;;;;;;;1.67;1.57;;;;;;;21.61;38.96;94794.31;6234074;27;103744;-65
2022/11/25 02:26:12;;;;;;;1.83;1.60;;;;;;;21.63;38.75;94792.13;6210511;27;103696;-64
2022/11/25 02:29:15;;;;;;;1.53;1.43;;;;;;;21.62;38.55;94787.88;6202486;28;105046;-64
2022/11/25 02:32:22;;;;;;;1.70;1.60;;;;;;;21.62;38.61;94795.88;6213453;27;103920;-64
2022/11/25 02:35:31;;;;;;;1.53;1.43;;;;;;;21.61;38.87;94797.75;6209510;28;104308;-64
2022/11/25 02:38:39;;;;;;;1.50;1.40;;;;;;;21.62;39.05;94798.53;6209820;28;103936;-64
2022/11/25 02:41:47;;;;;;;2.27;2.07;;;;;;;21.61;38.66;94794.31;6204655;28;104012;-64
2022/11/25 02:44:50;;;;;;;1.57;1.47;;;;;;;21.62;38.71;94793.22;6222637;28;104140;-64
2022/11/25 02:47:53;;;;;;;1.57;1.47;;;;;;;21.62;38.51;94798.53;6234587;27;105082;-64
2022/11/25 02:50:56;;;;;;;1.77;1.67;;;;;;;21.61;38.62;94794.31;6233491;27;104952;-63
2022/11/25 02:54:00;;;;;;;1.43;1.33;;;;;;;21.59;39.10;94794.63;6208711;27;103767;-63
2022/11/25 02:57:04;;;;;;;1.80;1.70;;;;;;;21.62;38.83;94796.66;6233400;28;103983;-63
2022/11/25 03:00:08;;;;;;;1.50;1.40;;;;;;;21.62;38.73;94803.88;6229734;27;103968;-63
2022/11/25 03:03:12;;;;;;;1.70;1.60;;;;;;;21.62;38.73;94801.19;6218274;28;104863;-64
2022/11/25 03:06:15;;;;;;;1.57;1.47;;;;;;;21.61;38.54;94800.41;6228759;28;106431;-64
2022/11/25 03:09:18;;;;;;;1.30;1.20;;;;;;;21.62;38.55;94809.19;6221240;27;105024;-64
2022/11/25 03:12:23;;;;;;;1.70;1.60;;;;;;;21.62;38.73;94815.28;6214308;28;103760;-64
2022/11/25 03:15:26;;;;;;;1.30;1.20;;;;;;;21.61;38.72;94815.59;6230017;28;106714;-65
2022/11/25 03:18:29;;;;;;;1.40;1.30;;;;;;;21.62;38.53;94819.84;6202568;28;105170;-65
2022/11/25 03:21:33;;;;;;;1.43;1.33;;;;;;;21.61;38.99;94823.59;6213850;28;105109;-65
2022/11/25 03:24:36;;;;;;;1.57;1.40;;;;;;;21.61;38.65;94816.38;6212520;28;103987;-66
2022/11/25 03:27:41;;;;;;;1.70;1.60;;;;;;;21.59;38.46;94823.13;6207999;28;103705;-65
2022/11/25 03:30:44;;;;;;;1.53;1.43;;;;;;;21.58;38.80;94827.66;6207706;28;103774;-65
2022/11/25 03:33:47;;;;;;;1.30;1.20;;;;;;;21.60;38.68;94828.13;6222511;28;103798;-65
2022/11/25 03:36:50;;;;;;;1.60;1.50;;;;;;;21.60;38.68;94833.47;6213331;28;105171;-65
2022/11/25 03:39:53;;;;;;;1.30;1.20;;;;;;;21.61;39.19;94834.25;6202565;28;103589;-65
2022/11/25 03:42:57;;;;;;;2.03;1.30;;;;;;;21.61;38.79;94839.56;6218074;28;104836;-65
2022/11/25 03:46:01;;;;;;;1.50;1.40;;;;;;;21.61;38.64;94836.91;6217390;27;103945;-65
2022/11/25 03:49:04;;;;;;;1.50;1.40;;;;;;;21.60;38.42;94830.00;6212678;28;104775;-65
2022/11/25 03:52:07;;;;;;;1.40;1.30;;;;;;;21.60;38.86;94840.66;6202006;28;104808;-65
2022/11/25 03:55:11;;;;;;;1.40;1.30;;;;;;;21.59;38.45;94845.22;6221528;27;103907;-65
2022/11/25 03:58:16;;;;;;;2.70;1.80;;;;;;;21.58;39.05;94843.63;6234808;27;103699;-64
2022/11/25 04:01:19;;;;;;;1.30;1.20;;;;;;;21.59;38.74;94850.53;6226930;27;103492;-65
2022/11/25 04:04:23;;;;;;;1.40;1.30;;;;;;;21.56;38.83;94853.81;6209910;28;104887;-64
2022/11/25 04:07:26;;;;;;;1.47;1.37;;;;;;;21.56;38.79;94856.47;6236712;28;104809;-68
2022/11/25 04:10:30;;;;;;;1.23;1.10;;;;;;;21.60;39.08;94859.31;6231986;27;103819;-67
2022/11/25 04:13:33;;;;;;;3.23;1.40;;;;;;;21.55;38.20;94857.56;6218829;28;104961;-64
2022/11/25 04:16:36;;;;;;;1.87;1.50;;;;;;;21.57;38.88;94873.22;6214123;28;104255;-64
2022/11/25 04:19:40;;;;;;;1.60;1.50;;;;;;;21.59;38.76;94871.84;6225550;28;103754;-64
2022/11/25 04:22:43;;;;;;;1.87;0.93;;;;;;;21.60;38.30;94873.41;6215813;28;103923;-64
2022/11/25 04:25:49;;;;;;;1.83;1.63;;;;;;;21.59;38.36;94887.81;6215625;27;107790;-66
2022/11/25 04:28:53;;;;;;;1.80;1.50;;;;;;;21.55;38.89;94881.53;6211148;28;103515;-67
2022/11/25 04:31:56;;;;;;;1.47;1.37;;;;;;;21.52;38.62;94890.91;6211848;28;105042;-67
2022/11/25 04:34:59;;;;;;;2.83;1.40;;;;;;;21.53;38.41;94883.72;6215778;28;104746;-67
2022/11/25 04:38:02;;;;;;;2.93;1.40;;;;;;;21.51;37.88;94893.88;6201681;28;105263;-67
2022/11/25 04:41:06;;;;;;;1.40;1.30;;;;;;;21.53;37.75;94899.69;6221383;28;103906;-68
2022/11/25 04:44:10;;;;;;;1.40;1.20;;;;;;;21.51;38.11;94901.88;6211579;28;107228;-68
2022/11/25 04:47:13;;;;;;;3.00;1.67;;;;;;;21.31;36.06;94905.81;6225292;28;103662;-65
2022/11/25 04:50:18;;;;;;;4.87;1.50;;;;;;;20.94;35.54;94906.94;6201495;28;104240;-65
2022/11/25 04:53:21;;;;;;;2.87;1.90;;;;;;;20.81;34.63;94908.53;6234446;27;103797;-64
2022/11/25 04:56:25;;;;;;;1.57;1.47;;;;;;;20.59;34.14;94908.50;6212091;28;106568;-66
2022/11/25 04:59:41;;;;;;;1.90;1.77;;;;;;;20.59;34.69;94919.16;6224845;28;104989;-64
2022/11/25 05:02:44;;;;;;;1.97;1.77;;;;;;;20.69;33.95;94918.94;6227096;28;105727;-65
2022/11/25 05:05:47;;;;;;;2.40;1.63;;;;;;;20.77;34.22;94928.06;6221328;28;103499;-65
2022/11/25 05:08:51;;;;;;;1.50;1.40;;;;;;;20.79;33.54;94937.31;6212836;28;103782;-63
2022/11/25 05:11:54;;;;;;;1.53;1.43;;;;;;;20.88;33.30;94937.41;6198756;28;103812;-63
2022/11/25 05:14:59;;;;;;;2.63;1.90;;;;;;;20.86;33.30;94937.69;6217352;28;106368;-64
2022/11/25 05:18:02;;;;;;;1.97;1.87;;;;;;;20.78;32.67;94933.06;6209414;27;103692;-63
2022/11/25 05:21:06;;;;;;;1.77;1.50;;;;;;;20.89;32.29;94941.63;6213372;28;103696;-64
2022/11/25 05:24:09;;;;;;;1.70;1.33;;;;;;;21.11;32.19;94940.88;6206695;27;103832;-64
2022/11/25 05:27:12;;;;;;;1.67;1.50;;;;;;;21.37;31.65;94944.53;6210315;28;103785;-63
2022/11/25 05:30:17;;;;;;;1.60;1.50;;;;;;;21.57;31.85;94953.13;6210406;28;103831;-64
2022/11/25 05:33:20;;;;;;;1.27;1.17;;;;;;;21.66;31.83;94960.03;6209671;28;103899;-64
2022/11/25 05:36:23;;;;;;;1.50;1.40;;;;;;;21.76;31.41;94967.00;6199357;28;103632;-64
2022/11/25 05:39:26;;;;;;;1.90;1.40;;;;;;;21.81;32.00;94975.66;6210528;28;103752;-64
2022/11/25 05:42:29;;;;;;;1.20;1.10;;;;;;;21.85;31.83;94970.56;6207415;28;103799;-65
2022/11/25 05:45:34;;;;;;;1.40;1.30;;;;;;;21.88;32.24;94980.59;6203216;28;103774;-64
2022/11/25 05:48:37;;;;;;;1.70;1.60;;;;;;;21.92;32.29;94992.19;6201198;28;105084;-64
2022/11/25 05:51:40;;;;;;;1.20;1.10;;;;;;;21.95;32.35;94996.91;6208014;28;105085;-64
2022/11/25 05:54:43;;;;;;;1.43;1.33;;;;;;;21.98;32.41;94998.97;6207352;28;104767;-64
2022/11/25 05:57:46;;;;;;;1.50;1.40;;;;;;;22.01;32.87;95005.56;6199993;28;104114;-64
2022/11/25 06:00:51;;;;;;;1.50;1.40;;;;;;;22.01;32.62;95005.56;6210526;28;104864;-63
2022/11/25 06:03:54;;;;;;;1.63;1.53;;;;;;;22.01;32.94;95011.69;6209540;28;104373;-64
2022/11/25 06:06:57;;;;;;;1.40;1.30;;;;;;;22.01;32.90;95009.03;6210383;28;103753;-64
2022/11/25 06:10:00;;;;;;;1.40;1.30;;;;;;;21.99;33.30;95016.53;6199341;28;104047;-64
2022/11/25 06:13:05;;;;;;;1.47;1.37;;;;;;;22.01;32.64;95024.22;6209821;28;103602;-65
2022/11/25 06:16:13;;;;;;;2.60;1.30;;;;;;;22.00;32.92;95031.41;6209973;28;103845;-64
2022/11/25 06:19:16;;;;;;;2.23;1.37;;;;;;;21.97;32.95;95032.03;6208279;28;103750;-64
2022/11/25 06:22:19;;;;;;;1.37;1.27;;;;;;;21.94;33.43;95037.97;6198620;28;103776;-64
2022/11/25 06:25:22;;;;;;;1.10;1.00;;;;;;;21.91;33.53;95043.91;6209096;28;103753;-63
2022/11/25 06:28:25;;;;;;;1.43;1.33;;;;;;;21.88;33.72;95038.41;6210764;28;103699;-63
2022/11/25 06:31:29;;;;;;;1.83;1.70;;;;;;;21.85;33.78;95047.81;6205424;28;107430;-63
2022/11/25 06:34:33;;;;;;;1.57;1.33;;;;;;;21.81;34.10;95054.78;6213238;28;103623;-63
2022/11/25 06:37:36;;;;;;;1.43;1.30;;;;;;;21.77;33.86;95056.47;6214095;28;104717;-63
2022/11/25 06:40:40;;;;;;;1.50;1.40;;;;;;;21.75;34.46;95074.63;6213667;28;105026;-64
2022/11/25 06:43:43;;;;;;;1.37;1.27;;;;;;;21.71;34.59;95065.69;6202686;28;103963;-63
2022/11/25 06:46:47;;;;;;;1.47;1.30;;;;;;;21.68;34.87;95069.75;6213436;28;104036;-63
2022/11/25 06:49:50;;;;;;;2.37;1.70;;;;;;;21.67;34.89;95081.47;6213073;28;103807;-64
2022/11/25 06:52:53;;;;;;;2.00;1.43;;;;;;;21.63;34.90;95079.72;6213857;28;108869;-65
2022/11/25 06:56:08;;;;;;;1.30;1.20;;;;;;;21.62;35.03;95088.78;6202930;28;103849;-65
2022/11/25 06:59:11;;;;;;;1.53;1.43;;;;;;;21.62;35.18;95088.78;6213882;28;103898;-63
2022/11/25 07:02:16;;;;;;;1.70;1.50;;;;;;;21.63;35.17;95101.00;6212702;28;104134;-64
2022/11/25 07:05:19;;;;;;;1.57;1.47;;;;;;;21.64;35.13;95081.28;6207571;28;103818;-63
2022/11/25 07:08:23;;;;;;;1.30;1.20;;;;;;;21.66;34.83;95087.88;6208495;28;103682;-66
2022/11/25 07:11:33;;;;;;;1.87;1.77;;;;;;;21.74;34.96;95097.03;6213767;28;103964;-63
2022/11/25 07:14:37;;;;;;;1.33;1.23;;;;;;;21.72;34.89;95094.69;6213595;28;103996;-65
2022/11/25 07:17:41;;;;;;;1.60;1.50;;;;;;;21.75;35.25;95091.41;6201749;28;104609;-65
2022/11/25 07:20:44;;;;;;;1.67;1.57;;;;;;;21.89;34.72;95094.06;6212657;28;104923;-65
2022/11/25 07:23:48;;;;;;;1.43;1.33;;;;;;;21.81;34.95;95092.06;6211831;28;104963;-65
2022/11/25 07:26:51;;;;;;;1.50;1.40;;;;;;;21.78;34.74;95096.13;6212692;28;103842;-65
2022/11/25 07:29:54;;;;;;;1.93;1.50;;;;;;;21.77;34.83;95094.56;6202833;28;103583;-65
2022/11/25 07:33:18;;;;;;;2.30;1.40;;;;;;;21.76;34.92;95094.84;6212168;28;103348;-65
2022/11/25 07:36:22;;;;;;;1.60;1.50;;;;;;;21.74;35.01;95097.81;6212558;28;103726;-63
2022/11/25 07:39:25;;;;;;;1.40;1.30;;;;;;;21.75;35.33;95099.41;6207535;28;105503;-65
2022/11/25 07:42:28;;;;;;;1.53;1.43;;;;;;;21.75;35.30;95109.28;6207479;28;104214;-64
2022/11/25 07:45:32;;;;;;;1.70;1.60;;;;;;;21.78;35.43;95106.00;6211953;28;105087;-64
2022/11/25 07:48:36;;;;;;;1.73;1.50;;;;;;;21.80;35.53;95107.25;6212387;28;103870;-65
2022/11/25 07:51:41;;;;;;;1.80;1.67;;;;;;;21.96;35.04;95115.72;6200564;28;103925;-64
2022/11/25 07:54:44;;;;;;;2.00;1.50;;;;;;;22.04;35.29;95123.00;6211767;28;103750;-64
2022/11/25 07:57:47;;;;;;;1.80;1.63;;;;;;;22.13;34.93;95125.72;6211974;28;103797;-64
2022/11/25 08:00:50;;;;;;;1.40;1.30;;;;;;;22.14;35.37;95126.50;6211569;28;103778;-63
2022/11/25 08:03:55;;;;;;;1.43;1.33;;;;;;;22.17;34.83;95125.88;6201286;27;104510;-63
2022/11/25 08:06:58;;;;;;;2.00;1.90;;;;;;;22.23;35.10;95125.47;6211937;28;103768;-65
2022/11/25 08:10:01;;;;;;;1.50;1.40;;;;;;;22.34;35.41;95142.00;6211742;28;103350;-64
2022/11/25 08:13:04;;;;;;;1.50;1.40;;;;;;;22.34;35.40;95132.13;6208491;28;104078;-64
2022/11/25 08:16:08;;;;;;;1.63;1.40;;;;;;;22.34;35.55;95129.44;6205231;28;104056;-64
2022/11/25 08:19:15;;;;;;;1.50;1.40;;;;;;;22.36;35.71;95137.94;6211718;28;103657;-64
2022/11/25 08:22:18;;;;;;;1.80;1.70;;;;;;;22.37;35.45;95146.75;6210995;28;103758;-64
2022/11/25 08:25:21;;;;;;;1.63;1.53;;;;;;;22.37;35.30;95139.53;6201352;28;103788;-64
2022/11/25 08:28:24;;;;;;;1.77;1.67;;;;;;;22.37;35.24;95136.06;6212048;28;104710;-64
2022/11/25 08:31:29;;;;;;;1.50;1.40;;;;;;;22.37;35.60;95141.41;6210845;28;103799;-65
2022/11/25 08:34:34;;;;;;;1.60;1.50;;;;;;;22.34;36.03;95147.31;6211388;28;103889;-65
2022/11/25 08:37:37;;;;;;;2.30;1.70;;;;;;;22.34;35.54;95139.31;6200184;28;105202;-64
2022/11/25 08:40:44;;;;;;;1.77;1.60;;;;;;;22.33;35.55;95135.09;6211766;28;104090;-65
2022/11/25 08:43:47;;;;;;;1.70;1.60;;;;;;;22.32;35.45;95149.50;6212139;28;103602;-64
2022/11/25 08:46:51;;;;;;;1.57;1.47;;;;;;;22.30;35.95;95144.47;6210690;27;103728;-64
2022/11/25 08:49:56;;;;;;;1.43;1.33;;;;;;;22.29;35.61;95150.13;6200901;28;105209;-63
2022/11/25 08:53:00;;;;;;;1.50;1.40;;;;;;;22.26;36.15;95146.19;6209179;28;103665;-63
2022/11/25 08:56:03;;;;;;;1.90;1.80;;;;;;;22.25;35.72;95138.50;6211310;28;103886;-65
2022/11/25 08:59:06;;;;;;;1.60;1.50;;;;;;;22.27;35.74;95142.44;6202426;27;104052;-63
2022/11/25 09:02:14;;;;;;;1.50;1.40;;;;;;;22.24;35.96;95137.72;6209442;28;104399;-63
2022/11/25 09:05:19;;;;;;;1.83;1.73;;;;;;;22.26;36.02;95140.84;6211099;28;103806;-63
2022/11/25 09:08:22;;;;;;;1.60;1.50;;;;;;;22.28;36.36;95137.88;6210420;28;104849;-63
2022/11/25 09:11:25;;;;;;;1.50;1.40;;;;;;;22.29;36.00;95152.78;6199999;28;103867;-65
2022/11/25 09:14:29;;;;;;;1.40;1.30;;;;;;;22.31;36.21;95142.59;6210716;28;103689;-65
2022/11/25 09:17:34;;;;;;;1.77;1.67;;;;;;;22.34;36.24;95150.00;6210228;28;103722;-63
2022/11/25 09:20:40;;;;;;;1.53;1.43;;;;;;;22.37;36.48;95146.75;6211464;28;103677;-65
2022/11/25 09:23:43;;;;;;;1.60;1.50;;;;;;;22.44;36.32;95147.09;6198446;28;103974;-65
2022/11/25 09:26:48;;;;;;;2.03;1.73;;;;;;;22.52;35.79;95158.91;6210616;28;105152;-63
2022/11/25 09:29:51;;;;;;;1.93;1.70;;;;;;;22.52;36.28;95153.56;6209796;28;103724;-63
2022/11/25 09:32:55;;;;;;;1.50;1.40;;;;;;;22.54;35.93;95160.16;6205712;28;103940;-63
2022/11/25 09:36:01;;;;;;;1.90;1.33;;;;;;;22.66;35.71;95163.06;6205126;28;104789;-63
2022/11/25 09:39:04;;;;;;;1.70;1.60;;;;;;;22.68;35.70;95147.56;6210128;28;103917;-64
2022/11/25 09:49:36;;;;;;;1.67;1.57;;;;;;;22.70;35.94;95152.59;6210128;28;104445;-64
2022/11/25 09:52:52;;;;;;;1.63;1.53;;;;;;;22.70;36.04;95148.06;6210053;28;103699;-63
2022/11/25 09:56:02;;;;;;;1.47;1.37;;;;;;;22.68;36.08;95150.25;6200562;28;103948;-65
2022/11/25 09:59:10;;;;;;;1.47;1.37;;;;;;;22.72;36.01;95154.97;6209203;28;103443;-64
2022/11/25 10:02:21;;;;;;;1.70;1.60;;;;;;;22.68;35.87;95144.09;6210132;28;103989;-64
2022/11/25 10:05:28;;;;;;;1.53;1.43;;;;;;;22.73;35.92;95149.31;6213945;28;103939;-65
2022/11/25 10:08:38;;;;;;;1.57;1.47;;;;;;;22.71;36.07;95146.16;6203481;28;105029;-64
2022/11/25 10:11:49;;;;;;;1.83;1.60;;;;;;;22.65;36.20;95140.16;6214598;28;103364;-64
2022/11/25 10:14:59;;;;;;;1.83;1.60;;;;;;;22.66;36.37;95139.06;6214018;28;104859;-64
2022/11/25 10:18:10;;;;;;;1.60;1.50;;;;;;;22.66;36.14;95141.72;6209312;28;103797;-65
2022/11/25 10:21:13;;;;;;;1.60;1.50;;;;;;;22.65;36.49;95142.81;6207962;28;104126;-64
2022/11/25 10:24:20;;;;;;;1.77;1.67;;;;;;;22.64;36.35;95151.91;6213264;28;104273;-64
2022/11/25 10:27:27;;;;;;;1.77;1.67;;;;;;;22.64;36.25;95135.13;6213070;28;104008;-64
2022/11/25 10:30:36;;;;;;;1.70;1.50;;;;;;;22.62;36.24;95148.78;6202324;28;104935;-64
2022/11/25 10:33:44;;;;;;;2.00;1.57;;;;;;;22.63;36.28;95138.91;6214222;28;104983;-64
2022/11/25 10:36:51;;;;;;;2.13;1.80;;;;;;;22.62;36.54;95143.44;6212853;28;103549;-63
2022/11/25 10:39:55;;;;;;;1.50;1.40;;;;;;;22.61;36.33;95133.88;6214001;28;103673;-64
2022/11/25 10:43:01;;;;;;;2.20;2.00;;;;;;;22.59;36.77;95145.94;6203459;28;103861;-64
2022/11/25 10:46:11;;;;;;;1.50;1.40;;;;;;;22.56;36.75;95141.97;6214221;28;103501;-64
2022/11/25 10:49:20;;;;;;;1.50;1.40;;;;;;;22.54;36.82;95157.50;6213588;28;103766;-63
2022/11/25 10:52:24;;;;;;;1.43;1.30;;;;;;;22.54;36.47;95151.38;6208198;28;105700;-64
2022/11/25 10:55:30;;;;;;;1.50;1.30;;;;;;;22.53;36.43;95149.81;6208473;28;104109;-64
2022/11/25 10:58:35;;;;;;;1.70;1.60;;;;;;;22.53;36.43;95160.47;6212293;28;103880;-64
2022/11/25 11:01:38;;;;;;;1.90;1.73;;;;;;;22.52;36.64;95165.03;6213168;28;104285;-64
2022/11/25 11:04:52;;;;;;;1.80;1.70;;;;;;;22.47;37.07;95165.13;6202725;28;103776;-65
2022/11/25 11:08:18;;;;;;;1.80;1.70;;;;;;;22.39;36.43;95165.88;6213054;28;103945;-63
2022/11/25 11:11:23;;;;;;;1.57;1.47;;;;;;;22.40;37.16;95162.91;6213692;28;103776;-64
2022/11/25 11:14:28;;;;;;;1.53;1.43;;;;;;;22.31;37.29;95169.25;6212686;28;104033;-64
2022/11/25 11:17:34;;;;;;;1.80;1.70;;;;;;;22.27;36.83;95157.63;6202269;28;105234;-64
2022/11/25 11:20:46;;;;;;;1.73;1.63;;;;;;;22.26;36.99;95167.50;6212966;28;104002;-64
2022/11/25 11:23:51;;;;;;;1.80;1.70;;;;;;;22.24;36.85;95160.91;6212446;28;104518;-63
2022/11/25 11:27:07;;;;;;;1.37;1.27;;;;;;;22.19;36.97;95155.72;6203376;28;103810;-63
2022/11/25 11:30:14;;;;;;;1.90;1.80;;;;;;;22.22;37.36;95171.09;6211394;28;103853;-64
2022/11/25 11:33:32;;;;;;;1.73;1.63;;;;;;;22.21;36.99;95167.66;6213036;28;105135;-65
2022/11/25 11:36:47;;;;;;;1.50;1.40;;;;;;;22.21;37.08;95166.84;6212425;28;103885;-63
2022/11/25 11:40:18;;;;;;;1.67;1.57;;;;;;;22.24;37.23;95179.56;6202966;28;104235;-65
2022/11/25 11:44:03;;;;;;;1.50;1.40;;;;;;;22.23;37.33;95178.78;6211879;28;103923;-65
2022/11/25 11:47:20;;;;;;;1.53;1.43;;;;;;;22.20;37.24;95166.06;6166261;28;106502;-65
2022/11/25 11:50:30;;;;;;;1.90;1.80;;;;;;;22.21;37.29;95182.84;6201616;28;105020;-63
2022/11/25 11:53:47;;;;;;;1.33;1.23;;;;;;;22.20;37.05;95183.94;6212529;28;103857;-64
2022/11/25 11:56:56;;;;;;;1.70;1.60;;;;;;;22.20;36.74;95183.94;6212561;28;104701;-64
2022/11/25 12:00:04;;;;;;;1.20;1.20;;;;;;;22.19;36.82;95177.81;6211834;28;103775;-63
2022/11/25 12:03:16;;;;;;;1.67;1.50;;;;;;;22.20;37.05;95183.94;6202677;28;104091;-63
2022/11/25 12:06:22;;;;;;;1.60;1.50;;;;;;;22.17;37.53;95185.31;6211621;28;103757;-63
2022/11/25 12:09:29;;;;;;;1.57;1.47;;;;;;;22.16;37.31;95190.94;6211617;28;103935;-65
2022/11/25 12:12:36;;;;;;;1.80;1.70;;;;;;;22.14;37.59;95179.81;6201104;28;107134;-63
2022/11/25 12:15:46;;;;;;;1.63;1.53;;;;;;;22.14;37.25;95182.47;6211601;28;103505;-63
2022/11/25 12:18:54;;;;;;;1.50;1.40;;;;;;;22.10;37.45;95183.06;6212303;28;103572;-65
2022/11/25 12:22:04;;;;;;;1.80;1.70;;;;;;;22.08;37.15;95193.25;6211488;28;103470;-65
2022/11/25 12:25:14;;;;;;;1.77;1.63;;;;;;;22.08;37.51;95193.25;6201670;28;104085;-66
2022/11/25 12:28:21;;;;;;;1.63;1.53;;;;;;;22.07;37.17;95186.34;6211301;28;105211;-65
2022/11/25 12:31:30;;;;;;;1.73;1.63;;;;;;;22.06;37.74;95198.09;6212131;28;103758;-65
2022/11/25 12:34:43;;;;;;;1.70;1.60;;;;;;;22.05;37.28;95190.41;6205802;28;104461;-64
2022/11/25 12:37:50;;;;;;;1.57;1.47;;;;;;;22.03;37.72;95185.38;6206858;28;107710;-64
2022/11/25 12:41:01;;;;;;;1.70;1.60;;;;;;;22.03;37.40;95174.72;6211131;28;104063;-64
2022/11/25 12:44:10;;;;;;;2.10;2.00;;;;;;;22.01;37.72;95187.56;6210881;28;103739;-64
2022/11/25 12:47:14;;;;;;;1.60;1.50;;;;;;;22.00;37.72;95183.28;6200199;28;103876;-65
2022/11/25 12:50:25;;;;;;;1.77;1.67;;;;;;;21.99;37.31;95181.72;6210521;28;103923;-65
2022/11/25 12:53:41;;;;;;;2.00;1.80;;;;;;;21.98;37.59;95177.47;6211613;28;104111;-64
2022/11/25 12:57:01;;;;;;;1.80;1.70;;;;;;;21.96;37.23;95169.00;6211233;28;104012;-64
2022/11/25 13:00:12;;;;;;;1.50;1.40;;;;;;;21.96;37.40;95185.00;6204628;28;103746;-64
2022/11/25 13:04:22;;;;;;;2.30;1.70;;;;;;;21.97;37.45;95180.44;6210717;28;103493;-65
2022/11/25 13:07:37;;;;;;;1.83;1.70;;;;;;;21.94;37.43;95179.19;6210112;28;103933;-65
2022/11/25 13:11:01;;;;;;;1.73;1.63;;;;;;;21.94;37.32;95170.41;6200530;28;104837;-64
2022/11/25 13:14:15;;;;;;;1.70;1.60;;;;;;;21.96;37.26;95184.22;6211184;28;103706;-65
2022/11/25 13:17:19;;;;;;;1.63;1.53;;;;;;;21.95;37.24;95177.31;6211419;28;103815;-64
2022/11/25 13:20:44;;;;;;;1.77;1.67;;;;;;;21.93;37.68;95158.97;6200164;28;104014;-65
2022/11/25 13:23:50;;;;;;;1.90;1.73;;;;;;;21.92;37.89;95164.59;6209873;28;104131;-65
2022/11/25 13:26:54;;;;;;;2.10;2.00;;;;;;;21.92;37.25;95172.59;6210243;28;103714;-65
2022/11/25 13:29:57;;;;;;;1.80;1.70;;;;;;;21.90;37.37;95172.09;6210753;28;104230;-64
2022/11/25 13:33:40;;;;;;;2.03;1.30;;;;;;;21.90;37.35;95170.22;6200343;28;104334;-64
2022/11/25 13:36:47;;;;;;;1.70;1.60;;;;;;;21.91;37.64;95171.78;6210571;28;104951;-65
2022/11/25 13:40:20;;;;;;;1.60;1.50;;;;;;;21.90;37.48;95164.91;6209476;28;104821;-65
2022/11/25 13:43:23;;;;;;;1.60;1.50;;;;;;;21.87;37.31;95173.50;6199129;28;105055;-65
2022/11/25 13:46:37;;;;;;;1.80;1.70;;;;;;;21.87;37.41;95173.50;6211042;28;105418;-65
2022/11/25 13:49:51;;;;;;;1.43;1.33;;;;;;;21.88;37.67;95172.41;6210046;28;103623;-66
2022/11/25 13:53:00;;;;;;;1.80;1.70;;;;;;;21.86;37.66;95179.13;6210519;28;105007;-65
2022/11/25 13:56:22;;;;;;;1.93;1.83;;;;;;;21.86;37.84;95179.91;6199340;28;104428;-65
2022/11/25 13:59:47;;;;;;;1.87;1.77;;;;;;;21.82;37.68;95189.56;6210246;28;104144;-65
2022/11/25 14:02:50;;;;;;;2.00;1.90;;;;;;;21.83;37.90;95191.16;6209847;28;103800;-65
2022/11/25 14:06:06;;;;;;;1.70;1.60;;;;;;;21.81;37.85;95198.63;6200025;28;103482;-64
2022/11/25 14:09:25;;;;;;;1.40;1.30;;;;;;;21.82;37.67;95200.22;6209987;28;103329;-64
2022/11/25 14:13:03;;;;;;;1.60;1.50;;;;;;;21.80;38.04;95205.03;6208780;28;104776;-65
2022/11/25 14:16:24;;;;;;;1.80;1.70;;;;;;;21.79;37.74;95211.47;6209900;28;103871;-65
2022/11/25 14:20:06;;;;;;;1.60;1.50;;;;;;;21.79;37.84;95211.47;6202748;28;104964;-65
2022/11/25 14:23:33;;;;;;;1.70;1.60;;;;;;;21.78;37.49;95215.22;6195808;28;105359;-64
2022/11/25 14:26:39;;;;;;;1.83;1.73;;;;;;;21.75;37.66;95215.81;6193380;28;103720;-64
2022/11/25 14:29:56;;;;;;;1.40;1.30;;;;;;;21.77;38.03;95224.28;6199497;28;106762;-64
2022/11/25 14:33:02;;;;;;;1.70;1.60;;;;;;;21.78;37.92;95223.19;6208747;28;103710;-64
2022/11/25 14:36:11;;;;;;;1.90;1.80;;;;;;;21.77;37.50;95213.63;6210077;28;103981;-64
2022/11/25 14:39:21;;;;;;;1.77;1.67;;;;;;;21.77;37.52;95216.28;6205269;28;104915;-65